Time;durP1;ratioP1;P1;durP2;ratioP2;P2;SDS_P1;SDS_P2;PMS_P1;PMS_P2;Temp;Humidity;BMP_temperature;BMP_pressure;BME280_temperature;BME280_humidity;BME280_pressure;Samples;Min_cycle;Max_cycle;Signal;HPM_P1;HPM_P2
2021/04/13 00:01:19;;;;;;;56.48;34.53;;;;;;;9.05;66.17;100007.91;1747887;81;21618;-64
2021/04/13 00:03:58;;;;;;;50.83;32.88;;;;;;;9.11;66.61;100012.11;1729409;81;21667;-64
2021/04/13 00:06:37;;;;;;;46.50;31.37;;;;;;;9.21;66.50;100007.44;1745380;81;21920;-64
2021/04/13 00:09:25;;;;;;;48.10;31.15;;;;;;;9.20;66.34;100003.96;1747876;81;21648;-64
2021/04/13 00:11:57;;;;;;;51.15;33.02;;;;;;;9.18;66.38;100001.84;1745622;80;21178;-64
2021/04/13 00:14:29;;;;;;;52.78;34.98;;;;;;;9.17;66.29;100000.11;1736967;81;21571;-66
2021/04/13 00:17:02;;;;;;;60.90;37.95;;;;;;;9.17;66.18;100007.98;1737910;81;21140;-66
2021/04/13 00:19:41;;;;;;;62.73;37.55;;;;;;;9.16;66.09;100000.57;1694664;81;22063;-65
2021/04/13 00:22:09;;;;;;;63.85;38.25;;;;;;;9.14;66.11;100007.64;1731341;81;21648;-64
2021/04/13 00:24:37;;;;;;;;;;;;;;;9.12;66.14;100005.52;1670187;82;21639;-63
2021/04/13 00:27:05;;;;;;;60.23;33.90;;;;;;;9.10;66.53;100003.86;1733394;81;20490;-63
2021/04/13 00:31:38;;;;;;;54.00;32.98;;;;;;;9.10;66.43;100011.73;1743081;79;22708;-65
2021/04/13 00:33:51;;;;;;;47.80;31.37;;;;;;;9.06;66.12;100017.95;1718436;80;21615;-65
2021/04/13 00:36:20;;;;;;;48.87;31.37;;;;;;;9.02;66.22;100014.55;1682231;82;22077;-65
2021/04/13 00:38:54;;;;;;;48.92;30.68;;;;;;;9.00;66.28;100015.06;1688895;80;21600;-66
2021/04/13 00:41:29;;;;;;;45.58;27.98;;;;;;;8.99;66.34;100009.88;1718343;80;21703;-66
2021/04/13 00:44:06;;;;;;;45.55;27.27;;;;;;;9.04;66.89;100006.64;1717131;80;21647;-64
2021/04/13 00:46:48;;;;;;;42.17;27.82;;;;;;;9.13;66.80;100007.67;1719543;80;21691;-66
2021/04/13 00:49:20;;;;;;;43.02;27.98;;;;;;;9.11;66.70;100003.78;1713219;80;21876;-65
2021/04/13 00:51:57;;;;;;;49.45;29.12;;;;;;;9.10;66.69;100005.17;1678539;82;21638;-64
2021/04/13 00:54:32;;;;;;;42.90;29.48;;;;;;;9.08;66.63;99999.96;1685533;83;21627;-65
2021/04/13 00:57:11;;;;;;;42.50;29.07;;;;;;;9.06;66.52;99999.16;1686712;82;21603;-66
2021/04/13 00:59:45;;;;;;;43.73;28.35;;;;;;;9.04;66.48;100000.09;1677008;83;21536;-65
2021/04/13 01:02:18;;;;;;;48.95;27.90;;;;;;;9.03;66.48;100001.86;1665084;83;21868;-66
2021/04/13 01:04:59;;;;;;;46.85;28.23;;;;;;;9.02;66.51;100002.75;1681590;82;21610;-65
2021/04/13 01:07:41;;;;;;;48.58;27.45;;;;;;;9.01;66.51;100003.67;1675263;83;21556;-64
2021/04/13 01:10:21;;;;;;;45.52;27.07;;;;;;;9.01;66.48;99996.27;1673108;84;21715;-63
2021/04/13 01:12:52;;;;;;;;;;;;;;;8.99;66.61;100002.02;1677679;82;21611;-63
2021/04/13 01:15:23;;;;;;;36.00;24.37;;;;;;;9.01;66.98;100003.67;1706263;82;20611;-64
2021/04/13 01:17:53;;;;;;;38.50;25.95;;;;;;;9.12;66.72;100002.05;1714098;80;21790;-61
2021/04/13 01:20:55;;;;;;;42.73;25.35;;;;;;;9.13;66.69;99999.80;1708299;82;21588;-63
2021/04/13 01:23:30;;;;;;;42.43;24.95;;;;;;;9.11;66.64;99996.38;1692761;82;21269;-63
2021/04/13 01:26:02;;;;;;;40.80;26.25;;;;;;;9.10;66.48;99993.36;1687887;80;21644;-62
2021/04/13 01:28:51;;;;;;;37.42;25.20;;;;;;;9.09;66.44;99995.56;1687966;82;21118;-64
2021/04/13 01:31:47;;;;;;;40.17;25.85;;;;;;;9.07;66.47;99997.38;1687137;82;21632;-63
2021/04/13 01:42:42;;;;;;;44.40;27.52;;;;;;;8.90;66.71;99993.50;1731502;82;21651;-64
2021/04/13 01:45:15;;;;;;;39.35;26.77;;;;;;;8.90;66.74;99993.97;1760402;80;21664;-65
2021/04/13 01:47:45;;;;;;;37.73;24.30;;;;;;;8.87;66.77;99994.05;1733832;80;21659;-67
2021/04/13 01:50:34;;;;;;;35.50;24.52;;;;;;;8.92;67.28;99989.06;1701028;82;21637;-65
2021/04/13 01:53:13;;;;;;;34.85;23.55;;;;;;;9.04;67.17;99986.97;1754521;80;21635;-65
2021/04/13 01:56:17;;;;;;;36.20;23.35;;;;;;;9.03;67.00;99987.44;1728288;82;22028;-66
2021/04/13 01:58:58;;;;;;;33.78;22.70;;;;;;;9.02;66.91;99987.02;1649810;85;21242;-65
2021/04/13 02:01:31;;;;;;;35.25;24.30;;;;;;;9.00;66.85;99983.58;1644610;85;21597;-66
2021/04/13 02:04:18;;;;;;;33.78;23.70;;;;;;;8.95;66.87;99990.30;1648609;85;21636;-63
2021/04/13 02:07:25;;;;;;;34.13;24.87;;;;;;;8.88;66.89;99980.05;1653317;85;21600;-64
2021/04/13 02:09:54;;;;;;;35.13;23.92;;;;;;;8.82;67.02;99982.40;1645266;85;22988;-64
2021/04/13 02:12:28;;;;;;;37.93;23.27;;;;;;;8.83;66.96;99981.47;1644342;85;21644;-63
2021/04/13 02:15:35;;;;;;;36.53;23.92;;;;;;;8.85;66.94;99977.50;1648790;85;21663;-65
2021/04/13 02:18:17;;;;;;;37.65;24.15;;;;;;;8.86;66.83;99975.30;1639330;85;21724;-64
2021/04/13 02:20:46;;;;;;;39.23;22.82;;;;;;;8.85;66.84;99978.35;1640507;85;21594;-63
2021/04/13 02:23:14;;;;;;;37.08;23.25;;;;;;;8.91;67.33;99969.01;1669200;83;21926;-63
2021/04/13 02:25:43;;;;;;;34.65;24.35;;;;;;;9.02;67.22;99971.28;1687471;83;21693;-63
2021/04/13 02:28:11;;;;;;;32.78;22.48;;;;;;;9.02;67.16;99975.21;1678113;83;21631;-62
2021/04/13 02:30:46;;;;;;;33.45;23.62;;;;;;;9.01;67.15;99977.45;1665495;83;21696;-63
2021/04/13 02:33:22;;;;;;;38.35;24.77;;;;;;;9.01;67.11;99973.52;1689443;83;21206;-63
2021/04/13 02:35:50;;;;;;;35.63;24.43;;;;;;;8.99;67.14;99973.16;1706707;81;22288;-64
2021/04/13 02:38:23;;;;;;;35.60;25.35;;;;;;;8.95;67.09;99973.25;1663149;83;21222;-64
2021/04/13 02:41:19;;;;;;;36.77;25.72;;;;;;;8.94;67.05;99967.59;1689734;83;21138;-63
2021/04/13 02:43:50;;;;;;;35.55;25.12;;;;;;;8.93;67.11;99967.66;1736089;80;21640;-63
2021/04/13 02:46:26;;;;;;;40.05;24.72;;;;;;;8.88;67.23;99974.34;1728142;81;21198;-62
2021/04/13 02:49:13;;;;;;;31.25;22.60;;;;;;;8.86;67.39;99976.61;1708902;82;22244;-65
2021/04/13 02:51:59;;;;;;;33.98;22.20;;;;;;;8.88;67.91;99974.80;1701023;82;21584;-64
2021/04/13 02:54:40;;;;;;;38.28;22.30;;;;;;;8.98;67.82;99981.92;1725594;81;21604;-63
2021/04/13 02:57:20;;;;;;;32.38;22.13;;;;;;;8.96;67.75;99974.95;1723694;81;21658;-63
2021/04/13 02:59:49;;;;;;;34.13;23.20;;;;;;;8.98;67.66;99975.38;1731733;81;21564;-63
2021/04/13 03:02:39;;;;;;;;;;;;;;;8.95;67.53;99977.19;1702445;83;22013;-63
2021/04/13 03:05:10;;;;;;;33.42;22.32;;;;;;;8.93;67.62;99968.97;1721373;80;20564;-63
2021/04/13 03:07:38;;;;;;;34.98;24.02;;;;;;;8.90;67.25;99967.73;1713341;80;21688;-62
2021/04/13 03:10:09;;;;;;;33.40;24.77;;;;;;;8.86;67.37;99964.81;1676610;82;21596;-65
2021/04/13 03:12:43;;;;;;;36.08;24.63;;;;;;;8.78;67.53;99975.53;1730739;81;21604;-64
2021/04/13 03:15:18;;;;;;;40.00;25.15;;;;;;;8.75;67.61;99973.00;1729091;82;22634;-64
2021/04/13 03:17:58;;;;;;;31.25;22.60;;;;;;;8.74;67.71;99971.30;1733769;81;22129;-65
2021/04/13 03:20:29;;;;;;;;;;;;;;;8.82;68.16;99973.68;1725415;81;21561;-64
2021/04/13 03:22:58;;;;;;;31.48;22.90;;;;;;;8.91;68.29;99970.33;1704364;82;20627;-63
2021/04/13 03:25:33;;;;;;;31.73;23.38;;;;;;;8.88;68.06;99975.65;1703027;83;21604;-64
2021/04/13 03:28:06;;;;;;;31.17;24.12;;;;;;;8.87;68.07;99977.88;1735799;81;21540;-66
2021/04/13 03:30:38;;;;;;;38.78;24.63;;;;;;;8.86;67.97;99980.55;1698202;83;21655;-64
2021/04/13 03:33:16;;;;;;;36.73;25.48;;;;;;;8.83;67.92;99980.16;1691625;82;21600;-65
2021/04/13 03:35:46;;;;;;;42.30;24.50;;;;;;;8.79;67.99;99977.70;1699361;82;21666;-65
2021/04/13 03:38:20;;;;;;;38.15;24.82;;;;;;;8.67;68.05;99977.16;1705088;83;21585;-66
2021/04/13 03:40:49;;;;;;;40.05;26.48;;;;;;;8.54;68.41;99988.45;1732063;81;22008;-67
2021/04/13 03:43:27;;;;;;;30.77;23.47;;;;;;;8.47;68.66;99975.11;1727893;81;21627;-67
2021/04/13 03:45:57;;;;;;;;;;;;;;;8.51;69.18;99974.14;1723177;82;21659;-67
2021/04/13 03:48:27;;;;;;;33.73;21.50;;;;;;;8.65;69.30;99971.11;1717819;82;20581;-66
2021/04/13 03:51:07;;;;;;;28.73;21.55;;;;;;;8.69;68.94;99980.59;1741414;80;21504;-66
2021/04/13 03:53:39;;;;;;;31.07;22.65;;;;;;;8.71;68.94;99984.02;1752650;80;22526;-66
2021/04/13 03:56:15;;;;;;;32.30;22.60;;;;;;;8.74;68.77;99980.47;1751645;81;21713;-66
2021/04/13 03:58:58;;;;;;;31.93;21.62;;;;;;;8.75;68.72;99979.09;1750266;80;21596;-66
2021/04/13 04:01:34;;;;;;;32.15;22.73;;;;;;;8.77;68.73;99986.91;1748666;80;21594;-67
2021/04/13 04:04:05;;;;;;;35.73;23.57;;;;;;;8.75;68.65;99986.95;1758197;80;21596;-66
2021/04/13 04:06:41;;;;;;;33.58;22.65;;;;;;;8.75;68.64;99984.33;1759668;80;22086;-65
2021/04/13 04:09:32;;;;;;;31.52;21.85;;;;;;;8.83;69.03;99988.49;1738443;81;21680;-65
2021/04/13 04:12:03;;;;;;;32.28;23.35;;;;;;;8.97;68.82;99987.63;1759828;79;21635;-64
2021/04/13 04:14:31;;;;;;;33.40;22.65;;;;;;;8.97;68.67;99988.95;1745492;79;21154;-64
2021/04/13 04:17:11;;;;;;;35.10;23.02;;;;;;;8.95;68.61;99991.61;1756443;79;21675;-70
2021/04/13 04:19:39;;;;;;;40.48;23.70;;;;;;;8.94;68.62;99986.41;1756165;80;21895;-64
2021/04/13 04:22:11;;;;;;;34.13;25.50;;;;;;;8.93;68.55;99986.02;1736358;80;21596;-64
2021/04/13 04:24:41;;;;;;;41.08;24.35;;;;;;;8.93;68.47;99990.80;1750928;80;21600;-61
2021/04/13 04:27:28;;;;;;;34.03;24.10;;;;;;;8.92;68.47;99991.69;1750956;79;22024;-62
2021/04/13 04:30:13;;;;;;;39.75;24.50;;;;;;;8.93;68.44;99993.88;1753018;79;21595;-65
2021/04/13 04:32:43;;;;;;;30.45;22.48;;;;;;;8.92;68.41;99996.94;1753054;80;22006;-67
2021/04/13 04:35:13;;;;;;;38.30;24.35;;;;;;;9.01;68.87;99992.34;1754410;79;21573;-65
2021/04/13 04:38:05;;;;;;;35.88;24.45;;;;;;;9.12;68.83;99996.33;1752007;80;21672;-67
2021/04/13 04:40:37;;;;;;;32.13;21.82;;;;;;;9.14;68.75;99994.98;1693358;82;21665;-65
2021/04/13 04:43:13;;;;;;;31.75;23.38;;;;;;;9.14;68.66;99989.73;1693833;82;21570;-65
2021/04/13 04:45:48;;;;;;;33.73;23.77;;;;;;;9.14;68.71;99992.36;1746699;80;22058;-65
2021/04/13 04:48:23;;;;;;;36.33;23.38;;;;;;;9.14;68.63;99997.60;1759208;79;21154;-64
2021/04/13 04:50:53;;;;;;;33.55;23.73;;;;;;;9.12;68.55;99987.61;1752014;79;21658;-64
2021/04/13 04:53:22;;;;;;;39.03;24.60;;;;;;;9.11;68.60;99990.67;1759864;79;21596;-64
2021/04/13 04:55:51;;;;;;;33.73;22.82;;;;;;;9.13;68.61;99994.56;1756745;79;21595;-64
2021/04/13 04:58:19;;;;;;;32.05;22.13;;;;;;;9.18;68.98;99989.19;1754860;81;23166;-64
2021/04/13 05:00:48;;;;;;;32.60;23.27;;;;;;;9.28;68.88;99993.22;1742741;80;21609;-64
2021/04/13 05:03:16;;;;;;;30.30;22.60;;;;;;;9.27;68.88;99992.83;1755250;81;21716;-64
2021/04/13 05:05:45;;;;;;;34.85;23.38;;;;;;;9.23;68.84;99996.44;1757542;79;21663;-64
2021/04/13 05:08:13;;;;;;;38.15;24.60;;;;;;;9.19;68.97;99987.80;1768128;79;21650;-63
2021/04/13 05:10:42;;;;;;;39.55;24.40;;;;;;;9.19;68.89;99989.11;1750033;80;22007;-64
2021/04/13 05:13:13;;;;;;;34.80;23.90;;;;;;;9.16;68.84;99986.14;1747785;80;21616;-63
2021/04/13 05:15:40;;;;;;;38.58;25.62;;;;;;;9.12;68.81;99986.30;1753315;80;21561;-68
2021/04/13 05:18:09;;;;;;;;;;;;;;;9.04;68.92;99979.11;1759198;81;21168;-64
2021/04/13 05:20:36;;;;;;;37.93;24.47;;;;;;;8.98;69.34;99984.55;1751663;79;20505;-63
2021/04/13 05:23:05;;;;;;;32.38;22.85;;;;;;;8.89;69.19;99980.00;1764185;79;22465;-65
2021/04/13 05:25:32;;;;;;;39.95;24.07;;;;;;;8.97;69.67;99979.77;1754607;81;21599;-65
2021/04/13 05:28:05;;;;;;;;;;;;;;;9.11;69.57;99980.64;1756189;79;21182;-63
2021/04/13 05:30:41;;;;;;;33.67;22.05;;;;;;;9.12;69.83;99983.22;1751447;80;20586;-63
2021/04/13 05:33:10;;;;;;;36.20;23.20;;;;;;;9.12;69.50;99978.43;1757855;79;21603;-61
2021/04/13 05:35:38;;;;;;;37.03;23.38;;;;;;;9.11;69.64;99980.64;1750236;80;22157;-62
2021/04/13 05:38:28;;;;;;;33.42;23.65;;;;;;;9.15;69.46;99983.13;1717708;82;21703;-64
2021/04/13 05:41:28;;;;;;;34.08;23.00;;;;;;;9.18;69.36;99978.23;1715310;82;21609;-60
2021/04/13 05:44:28;;;;;;;39.75;23.22;;;;;;;9.18;69.23;99978.23;1733217;80;21617;-60
2021/04/13 05:47:17;;;;;;;32.93;22.32;;;;;;;9.16;69.17;99978.73;1733757;80;21564;-68
2021/04/13 05:49:45;;;;;;;35.13;23.02;;;;;;;9.27;69.59;99973.16;1730435;81;22084;-63
2021/04/13 05:52:13;;;;;;;;;;;;;;;9.38;69.45;99972.35;1724554;81;21674;-62
2021/04/13 05:54:41;;;;;;;36.98;23.27;;;;;;;9.42;69.46;99973.08;1728945;81;20521;-62
2021/04/13 05:57:17;;;;;;;33.70;23.12;;;;;;;9.41;69.15;99972.70;1704350;83;21616;-63
2021/04/13 05:59:57;;;;;;;35.38;23.38;;;;;;;9.43;69.04;99977.44;1679674;83;21254;-62
2021/04/13 06:02:48;;;;;;;34.50;23.32;;;;;;;9.44;68.87;99979.17;1705054;83;22156;-61
2021/04/13 06:05:34;;;;;;;38.15;23.55;;;;;;;9.40;68.85;99973.16;1704893;83;21469;-60
2021/04/13 06:08:09;;;;;;;32.98;23.67;;;;;;;9.46;68.70;99988.70;1707463;83;21660;-59
2021/04/13 06:10:58;;;;;;;36.42;23.70;;;;;;;9.46;68.55;99982.59;1708021;83;21721;-60
2021/04/13 06:13:27;;;;;;;36.63;23.55;;;;;;;9.43;68.47;99983.53;1707858;83;21612;-60
2021/04/13 06:15:55;;;;;;;35.20;22.82;;;;;;;9.48;68.85;99985.56;1708337;83;21993;-59
2021/04/13 06:18:31;;;;;;;36.17;22.20;;;;;;;9.58;68.81;99986.11;1703012;83;21622;-63
2021/04/13 06:21:01;;;;;;;37.15;24.05;;;;;;;9.61;68.86;99982.55;1651781;83;21621;-59
2021/04/13 06:23:33;;;;;;;31.20;25.35;;;;;;;9.62;68.88;99982.47;1704138;82;21172;-61
2021/04/13 06:26:03;;;;;;;40.03;24.55;;;;;;;9.62;68.84;99976.38;1678482;83;22008;-59
2021/04/13 06:28:31;;;;;;;36.98;25.23;;;;;;;9.59;69.07;99981.71;1713047;82;21794;-60
2021/04/13 06:31:05;;;;;;;35.70;25.15;;;;;;;9.53;69.39;99990.22;1710268;83;21681;-59
2021/04/13 06:33:36;;;;;;;33.38;22.98;;;;;;;9.49;69.48;99985.98;1708187;82;21668;-60
2021/04/13 06:36:09;;;;;;;37.67;22.77;;;;;;;9.57;69.94;99980.48;1707623;82;21667;-60
2021/04/13 06:38:38;;;;;;;33.48;22.77;;;;;;;9.68;69.85;99988.85;1679055;82;21552;-60
2021/04/13 06:48:33;;;;;;;35.98;24.45;;;;;;;9.57;70.32;99987.47;1691494;82;21481;-57
2021/04/13 06:51:30;;;;;;;40.10;24.10;;;;;;;9.48;70.35;99983.41;1703077;82;21210;-56
2021/04/13 06:54:36;;;;;;;35.50;23.80;;;;;;;9.45;70.62;99983.48;1716227;81;21571;-56
2021/04/13 06:57:25;;;;;;;41.58;24.15;;;;;;;9.52;71.15;99985.86;1706114;81;21911;-62
2021/04/13 07:00:14;;;;;;;33.85;24.67;;;;;;;9.61;71.29;99989.96;1702714;82;21242;-62
2021/04/13 07:03:18;;;;;;;40.63;24.50;;;;;;;9.62;71.30;99982.47;1700975;81;21121;-64
2021/04/13 07:05:57;;;;;;;34.95;25.88;;;;;;;9.64;71.21;99981.96;1667466;83;21647;-61
2021/04/13 07:08:39;;;;;;;44.42;26.60;;;;;;;9.69;71.16;99983.98;1703240;81;21482;-62
2021/04/13 07:11:35;;;;;;;35.40;23.42;;;;;;;9.70;71.08;99984.84;1705566;82;22025;-59
2021/04/13 07:14:17;;;;;;;37.13;25.37;;;;;;;9.79;71.39;99988.93;1702464;81;21622;-59
2021/04/13 07:16:56;;;;;;;39.42;25.15;;;;;;;9.94;71.05;99988.39;1675417;83;21154;-58
2021/04/13 07:19:42;;;;;;;47.78;33.20;;;;;;;9.95;71.04;99980.94;1700517;82;21569;-60
2021/04/13 07:22:44;;;;;;;42.80;26.05;;;;;;;9.99;70.81;99984.31;1676891;83;21150;-59
2021/04/13 07:25:17;;;;;;;39.27;26.33;;;;;;;10.06;70.39;99987.13;1662254;84;22119;-59
2021/04/13 07:27:54;;;;;;;38.73;26.80;;;;;;;10.04;70.33;99981.93;1695979;81;21615;-60
2021/04/13 07:30:45;;;;;;;37.48;23.80;;;;;;;10.04;70.25;99977.11;1697607;82;21155;-63
2021/04/13 07:33:21;;;;;;;39.63;24.60;;;;;;;10.14;70.67;99985.08;1690072;82;21517;-63
2021/04/13 07:35:50;;;;;;;41.45;25.72;;;;;;;10.29;70.35;99985.84;1699783;81;21213;-66
2021/04/13 07:38:22;;;;;;;43.45;25.32;;;;;;;10.29;70.00;99982.36;1656466;82;22066;-64
2021/04/13 07:41:29;;;;;;;38.63;26.25;;;;;;;10.23;70.15;99982.12;1699292;81;21175;-63
2021/04/13 07:44:09;;;;;;;39.70;24.90;;;;;;;10.26;70.04;99985.09;1688169;81;21635;-60
2021/04/13 07:47:06;;;;;;;35.95;25.75;;;;;;;10.23;70.23;99983.44;1719242;82;21596;-63
2021/04/13 07:49:56;;;;;;;42.27;26.60;;;;;;;10.21;70.08;99983.08;1715630;82;21569;-60
2021/04/13 07:52:46;;;;;;;36.85;24.77;;;;;;;10.25;70.28;99989.97;1693006;80;22100;-67
2021/04/13 07:55:30;;;;;;;43.42;28.27;;;;;;;10.38;70.55;99991.70;1756632;79;21552;-59
2021/04/13 07:58:21;;;;;;;41.20;27.25;;;;;;;10.54;70.18;99988.92;1754737;80;21643;-64
2021/04/13 08:00:52;;;;;;;42.00;26.52;;;;;;;10.54;70.13;99990.23;1746000;80;21697;-60
2021/04/13 08:03:33;;;;;;;39.83;27.35;;;;;;;10.58;69.87;99994.92;1751355;80;21202;-58
2021/04/13 08:06:05;;;;;;;46.80;28.17;;;;;;;10.64;69.67;99993.37;1751369;80;21918;-60
2021/04/13 08:08:35;;;;;;;48.68;29.75;;;;;;;10.70;69.35;99988.75;1750651;79;21691;-58
2021/04/13 08:11:21;;;;;;;50.50;33.15;;;;;;;10.71;69.31;99990.91;1751431;80;21648;-56
2021/04/13 08:13:53;;;;;;;36.83;26.35;;;;;;;10.67;69.64;99986.69;1750709;79;21623;-57
2021/04/13 08:16:38;;;;;;;41.95;28.23;;;;;;;10.76;69.79;99985.03;1750550;80;21111;-58
2021/04/13 08:19:31;;;;;;;41.92;27.40;;;;;;;10.93;69.44;99981.75;1752456;80;21572;-61
2021/04/13 08:22:15;;;;;;;38.10;27.40;;;;;;;11.01;69.12;99980.13;1754546;79;21587;-59
2021/04/13 08:24:55;;;;;;;41.63;27.48;;;;;;;11.09;68.71;99971.47;1755548;81;21601;-58
2021/04/13 08:27:49;;;;;;;39.20;28.17;;;;;;;11.18;68.42;99972.42;1756989;80;21659;-59
2021/04/13 08:34:04;;;;;;;44.15;29.72;;;;;;;11.28;67.75;99973.78;1719476;81;22053;-62
2021/04/13 08:36:53;;;;;;;43.25;30.90;;;;;;;11.32;67.62;99976.27;1751393;80;21233;-59
2021/04/13 08:39:47;;;;;;;47.00;31.57;;;;;;;11.37;67.42;99964.63;1757113;80;21142;-59
2021/04/13 08:42:30;;;;;;;46.77;29.35;;;;;;;11.43;67.27;99966.16;1742067;80;21719;-59
2021/04/13 08:45:05;;;;;;;40.30;28.85;;;;;;;11.56;67.51;99960.78;1750961;79;21958;-61
2021/04/13 08:47:40;;;;;;;44.10;29.00;;;;;;;11.68;67.01;99964.22;1754911;80;21652;-60
2021/04/13 08:50:29;;;;;;;39.88;28.70;;;;;;;11.69;66.80;99966.39;1750678;80;21514;-60
2021/04/13 08:53:02;;;;;;;41.70;28.87;;;;;;;11.69;66.66;99971.66;1718563;80;21611;-61
2021/04/13 08:55:45;;;;;;;48.80;31.30;;;;;;;11.66;66.58;99961.27;1741550;79;21628;-61
2021/04/13 08:58:22;;;;;;;39.98;29.10;;;;;;;11.68;66.52;99963.37;1747129;80;21629;-60
2021/04/13 09:00:56;;;;;;;41.98;28.67;;;;;;;11.72;66.28;99967.59;1755670;80;22052;-61
2021/04/13 09:03:28;;;;;;;42.05;29.98;;;;;;;11.70;66.25;99962.84;1750288;79;21623;-60
2021/04/13 09:06:12;;;;;;;42.30;29.35;;;;;;;11.72;66.22;99964.11;1747240;80;21663;-60
2021/04/13 09:09:06;;;;;;;42.60;29.80;;;;;;;11.74;66.12;99959.16;1734737;79;21651;-60
2021/04/13 09:12:18;;;;;;;37.45;29.57;;;;;;;11.75;65.98;99961.32;1738606;80;21627;-60
2021/04/13 09:15:11;;;;;;;39.10;28.10;;;;;;;11.77;65.91;99959.48;1752925;81;22046;-59
2021/04/13 09:18:04;;;;;;;41.45;27.82;;;;;;;11.83;65.74;99955.28;1705070;82;21745;-60
2021/04/13 09:20:47;;;;;;;41.53;28.75;;;;;;;11.91;65.42;99951.88;1684479;84;21641;-61
2021/04/13 09:23:57;;;;;;;41.60;25.27;;;;;;;11.97;65.27;99945.02;1748121;80;21199;-60
2021/04/13 09:26:48;;;;;;;37.03;26.50;;;;;;;12.05;65.69;99945.56;1740437;79;21840;-59
2021/04/13 09:29:42;;;;;;;38.80;25.23;;;;;;;12.20;65.11;99943.98;1699253;80;21645;-60
2021/04/13 09:32:30;;;;;;;35.25;25.68;;;;;;;12.28;64.78;99946.28;1752513;81;21740;-61
2021/04/13 09:35:25;;;;;;;41.53;26.65;;;;;;;12.33;64.58;99939.50;1754214;80;21602;-59
2021/04/13 09:38:46;;;;;;;35.80;25.43;;;;;;;12.38;64.37;99941.00;1751926;80;21579;-59
2021/04/13 09:41:41;;;;;;;35.78;24.67;;;;;;;12.42;64.12;99937.77;1747920;81;21186;-60
2021/04/13 09:44:53;;;;;;;36.88;27.00;;;;;;;12.46;63.83;99935.38;1754847;79;21587;-57
2021/04/13 09:48:06;;;;;;;40.12;26.07;;;;;;;12.46;63.55;99934.91;1702569;82;21735;-64
2021/04/13 09:50:54;;;;;;;38.85;26.48;;;;;;;12.43;63.41;99937.70;1727372;80;21657;-64
2021/04/13 09:54:06;;;;;;;36.20;27.00;;;;;;;12.43;63.19;99939.02;1813748;76;22770;-59
2021/04/13 09:57:03;;;;;;;35.73;26.73;;;;;;;12.34;63.38;99938.12;1743023;80;21573;-61
2021/04/13 10:00:04;;;;;;;40.58;26.20;;;;;;;12.29;63.50;99941.89;1745641;79;22021;-61
2021/04/13 10:03:38;;;;;;;35.98;26.27;;;;;;;12.20;63.59;99938.72;1776414;77;21593;-64
2021/04/13 10:06:06;;;;;;;38.55;26.00;;;;;;;12.12;63.70;99940.85;1783657;77;22147;-64
2021/04/13 10:08:36;;;;;;;38.02;27.02;;;;;;;12.01;63.90;99933.88;1746570;80;21654;-64
2021/04/13 10:11:13;;;;;;;38.23;27.87;;;;;;;11.95;64.07;99936.33;1722074;80;21638;-64
2021/04/13 10:14:29;;;;;;;38.30;28.07;;;;;;;11.94;64.35;99929.36;1714118;80;22055;-66
2021/04/13 10:17:27;;;;;;;37.80;26.30;;;;;;;11.93;64.43;99930.73;1664299;81;21623;-69
2021/04/13 10:20:13;;;;;;;36.65;26.70;;;;;;;12.01;65.01;99930.78;1734378;80;21586;-65
2021/04/13 10:23:07;;;;;;;40.65;25.97;;;;;;;12.14;64.67;99922.34;1740175;80;21807;-68
2021/04/13 10:26:09;;;;;;;37.15;26.33;;;;;;;12.18;64.52;99926.55;1733839;81;21595;-66
2021/04/13 10:29:14;;;;;;;39.03;25.62;;;;;;;12.18;64.30;99922.59;1788573;77;22141;-62
2021/04/13 10:32:29;;;;;;;33.98;25.85;;;;;;;12.21;64.22;99922.47;1786868;77;21188;-63
2021/04/13 10:35:04;;;;;;;41.73;27.22;;;;;;;12.25;64.04;99924.03;1783829;77;21611;-66
2021/04/13 10:37:59;;;;;;;40.10;29.37;;;;;;;12.27;63.89;99924.81;1788528;77;21658;-63
2021/04/13 10:41:18;;;;;;;43.40;28.65;;;;;;;12.28;63.88;99927.83;1784408;77;21172;-65
2021/04/13 10:44:17;;;;;;;41.70;29.07;;;;;;;12.24;63.81;99924.94;1783868;78;22066;-64
2021/04/13 10:46:50;;;;;;;39.90;28.83;;;;;;;12.20;63.92;99927.33;1792137;77;21611;-64
2021/04/13 10:49:55;;;;;;;43.25;29.18;;;;;;;12.20;63.85;99928.17;1788185;77;21683;-64
2021/04/13 10:52:49;;;;;;;46.45;32.00;;;;;;;12.20;63.87;99928.17;1773025;77;21619;-63
2021/04/13 10:55:25;;;;;;;46.83;32.85;;;;;;;12.18;63.86;99919.95;1700290;82;21146;-64
2021/04/13 10:58:08;;;;;;;46.92;31.87;;;;;;;12.26;63.95;99915.18;1860908;75;23171;-62
2021/04/13 11:01:35;;;;;;;47.60;33.33;;;;;;;12.22;63.89;99924.16;1774106;78;21127;-61
2021/04/13 11:04:46;;;;;;;43.00;31.30;;;;;;;12.24;63.92;99924.94;1767120;79;22088;-65
2021/04/13 11:07:35;;;;;;;48.65;32.17;;;;;;;12.25;63.83;99918.29;1772934;79;21130;-62
2021/04/13 11:10:30;;;;;;;42.65;29.85;;;;;;;12.29;63.88;99915.52;1783843;79;21595;-61
2021/04/13 11:13:25;;;;;;;39.63;29.27;;;;;;;12.35;63.76;99915.23;1758832;79;21627;-61
2021/04/13 11:16:09;;;;;;;38.08;26.48;;;;;;;12.41;63.62;99912.30;1799104;78;21659;-64
2021/04/13 11:19:05;;;;;;;36.63;26.93;;;;;;;12.52;64.10;99915.78;1742440;80;21862;-63
2021/04/13 11:22:13;;;;;;;33.85;26.02;;;;;;;12.64;63.72;99912.58;1787718;78;21670;-63
2021/04/13 11:25:17;;;;;;;36.73;27.27;;;;;;;12.71;63.40;99911.34;1796531;78;21646;-63
2021/04/13 11:28:35;;;;;;;38.70;27.10;;;;;;;12.74;63.21;99908.56;1712806;80;21173;-62
2021/04/13 11:31:59;;;;;;;38.70;27.60;;;;;;;12.77;62.89;99909.75;1771988;79;21579;-63
2021/04/13 11:34:56;;;;;;;40.63;26.68;;;;;;;12.76;62.64;99910.66;1761230;78;22504;-64
2021/04/13 11:38:04;;;;;;;36.13;26.45;;;;;;;12.75;62.61;99908.09;1761806;80;21609;-65
2021/04/13 11:40:52;;;;;;;37.35;27.35;;;;;;;12.75;62.56;99906.77;1770020;79;21550;-63
2021/04/13 11:43:23;;;;;;;37.58;28.65;;;;;;;12.71;62.51;99913.12;1788100;78;21548;-65
2021/04/13 11:46:06;;;;;;;38.13;27.95;;;;;;;12.62;62.69;99907.38;1744073;80;21544;-62
2021/04/13 11:48:40;;;;;;;34.23;27.75;;;;;;;12.60;62.77;99909.67;1787054;78;21906;-64
2021/04/13 11:51:31;;;;;;;36.50;27.30;;;;;;;12.51;62.87;99903.06;1789718;78;21556;-60
2021/04/13 11:54:10;;;;;;;33.18;27.52;;;;;;;12.44;63.03;99902.48;1773769;79;21647;-61
2021/04/13 11:56:39;;;;;;;34.60;26.70;;;;;;;12.34;63.16;99906.91;1747501;80;21577;-60
2021/04/13 11:59:24;;;;;;;36.60;28.25;;;;;;;12.27;63.36;99909.84;1771700;79;21945;-57
2021/04/13 12:01:57;;;;;;;39.05;25.90;;;;;;;12.20;63.48;99907.08;1778176;79;22176;-61
2021/04/13 12:04:46;;;;;;;35.20;26.87;;;;;;;12.12;63.58;99902.63;1773079;78;21746;-62
2021/04/13 12:07:24;;;;;;;35.30;25.90;;;;;;;12.05;63.90;99898.12;1799382;78;21536;-65
2021/04/13 12:09:59;;;;;;;33.55;23.73;;;;;;;11.96;64.40;99898.97;1763220;78;21648;-65
2021/04/13 12:12:36;;;;;;;32.75;24.55;;;;;;;11.95;65.15;99892.00;1771056;79;21661;-67
2021/04/13 12:15:10;;;;;;;30.17;23.90;;;;;;;12.01;65.12;99896.98;1772089;79;22058;-65
2021/04/13 12:17:46;;;;;;;35.03;26.07;;;;;;;11.98;65.08;99897.99;1770498;78;22295;-66
2021/04/13 12:20:34;;;;;;;34.90;26.00;;;;;;;11.87;65.87;99890.99;1790689;78;21595;-65
2021/04/13 12:23:17;;;;;;;34.18;25.55;;;;;;;11.74;65.68;99889.35;1764447;80;22112;-64
2021/04/13 12:25:59;;;;;;;36.60;26.25;;;;;;;11.69;65.92;99892.17;1792163;78;21641;-60
2021/04/13 12:28:38;;;;;;;38.53;27.70;;;;;;;11.61;66.24;99890.34;1799581;78;21682;-62
2021/04/13 12:31:23;;;;;;;35.95;25.97;;;;;;;11.60;66.08;99889.08;1760070;79;22114;-62
2021/04/13 12:34:06;;;;;;;38.53;27.25;;;;;;;11.58;66.38;99889.61;1774769;79;27312;-63
2021/04/13 12:36:54;;;;;;;40.05;26.35;;;;;;;11.50;66.82;99894.73;1758261;79;22012;-62
2021/04/13 12:39:43;;;;;;;36.38;25.40;;;;;;;11.27;66.85;99873.81;1762866;78;21497;-62
2021/04/13 12:42:43;;;;;;;38.67;26.05;;;;;;;11.43;68.34;99888.48;1770192;79;21900;-62
2021/04/13 12:47:33;;;;;;;38.50;26.48;;;;;;;11.39;70.12;99885.59;1743327;79;23369;-59
2021/04/13 12:50:01;;;;;;;35.23;26.17;;;;;;;11.27;70.46;99883.03;1713784;82;21643;-59
2021/04/13 12:52:30;;;;;;;35.10;26.23;;;;;;;11.25;70.31;99880.45;1709201;82;22047;-59
2021/04/13 12:55:02;;;;;;;40.17;24.82;;;;;;;11.28;70.26;99880.34;1701772;81;21170;-60